sensor_id;sensor_type;location;lat;lon;timestamp;pressure;altitude;pressure_sealevel;temperature;humidity
72086;BME280;64750;52.134;5.424;2024-02-16T00:01:41;101155.16;;;11.58;96.22
72086;BME280;64750;52.134;5.424;2024-02-16T00:04:07;101152.63;;;11.56;96.26
72086;BME280;64750;52.134;5.424;2024-02-16T00:06:34;101153.44;;;11.57;96.50
72086;BME280;64750;52.134;5.424;2024-02-16T00:09:00;101142.16;;;11.55;96.26
72086;BME280;64750;52.134;5.424;2024-02-16T00:11:27;101148.38;;;11.54;96.13
72086;BME280;64750;52.134;5.424;2024-02-16T00:13:55;101146.69;;;11.53;96.35
72086;BME280;64750;52.134;5.424;2024-02-16T00:16:21;101148.53;;;11.51;96.39
72086;BME280;64750;52.134;5.424;2024-02-16T00:18:48;101144.97;;;11.52;96.55
72086;BME280;64750;52.134;5.424;2024-02-16T00:21:15;101146.84;;;11.49;96.41
72086;BME280;64750;52.134;5.424;2024-02-16T00:23:43;101143.47;;;11.47;96.32
72086;BME280;64750;52.134;5.424;2024-02-16T00:26:10;101145.16;;;11.48;96.29
72086;BME280;64750;52.134;5.424;2024-02-16T00:28:37;101139.03;;;11.48;96.47
72086;BME280;64750;52.134;5.424;2024-02-16T00:31:03;101145.34;;;11.45;96.37
72086;BME280;64750;52.134;5.424;2024-02-16T00:33:32;101141.78;;;11.46;96.62
72086;BME280;64750;52.134;5.424;2024-02-16T00:36:00;101142.72;;;11.45;96.77
72086;BME280;64750;52.134;5.424;2024-02-16T00:38:27;101141.94;;;11.43;96.68
72086;BME280;64750;52.134;5.424;2024-02-16T00:40:53;101141.09;;;11.43;96.88
72086;BME280;64750;52.134;5.424;2024-02-16T00:43:20;101134.03;;;11.43;97.04
72086;BME280;64750;52.134;5.424;2024-02-16T00:45:46;101144.56;;;11.43;96.94
72086;BME280;64750;52.134;5.424;2024-02-16T00:48:14;101141.94;;;11.43;96.95
72086;BME280;64750;52.134;5.424;2024-02-16T00:50:41;101136.75;;;11.42;96.92
72086;BME280;64750;52.134;5.424;2024-02-16T00:53:09;101138.56;;;11.41;96.88
72086;BME280;64750;52.134;5.424;2024-02-16T00:55:35;101133.31;;;11.41;97.17
72086;BME280;64750;52.134;5.424;2024-02-16T00:58:03;101125.50;;;11.40;97.24
72086;BME280;64750;52.134;5.424;2024-02-16T01:00:30;101129.91;;;11.39;97.22
72086;BME280;64750;52.134;5.424;2024-02-16T01:02:57;101131.78;;;11.37;97.20
72086;BME280;64750;52.134;5.424;2024-02-16T01:05:24;101132.63;;;11.38;97.05
72086;BME280;64750;52.134;5.424;2024-02-16T01:07:51;101132.81;;;11.35;96.97
72086;BME280;64750;52.134;5.424;2024-02-16T01:10:17;101129.31;;;11.34;96.98
72086;BME280;64750;52.134;5.424;2024-02-16T01:12:44;101113.63;;;11.32;96.83
72086;BME280;64750;52.134;5.424;2024-02-16T01:15:10;101114.47;;;11.33;97.00
72086;BME280;64750;52.134;5.424;2024-02-16T01:17:38;101111.84;;;11.33;97.13
72086;BME280;64750;52.134;5.424;2024-02-16T01:20:06;101118.91;;;11.32;97.18
72086;BME280;64750;52.134;5.424;2024-02-16T01:22:37;101111.94;;;11.31;97.03
72086;BME280;64750;52.134;5.424;2024-02-16T01:25:04;101108.47;;;11.31;97.10
72086;BME280;64750;52.134;5.424;2024-02-16T01:27:31;101105.84;;;11.31;97.44
72086;BME280;64750;52.134;5.424;2024-02-16T01:29:58;101102.44;;;11.29;97.42
72086;BME280;64750;52.134;5.424;2024-02-16T01:32:26;101104.22;;;11.28;97.35
72086;BME280;64750;52.134;5.424;2024-02-16T01:34:52;101110.31;;;11.29;97.37
72086;BME280;64750;52.134;5.424;2024-02-16T01:37:19;101103.38;;;11.28;97.10
72086;BME280;64750;52.134;5.424;2024-02-16T01:39:45;101095.47;;;11.28;97.33
72086;BME280;64750;52.134;5.424;2024-02-16T01:42:12;101096.44;;;11.27;97.22
72086;BME280;64750;52.134;5.424;2024-02-16T01:44:39;101095.56;;;11.26;97.29
72086;BME280;64750;52.134;5.424;2024-02-16T01:47:05;101095.75;;;11.23;97.29
72086;BME280;64750;52.134;5.424;2024-02-16T01:49:33;101098.50;;;11.22;97.59
72086;BME280;64750;52.134;5.424;2024-02-16T01:52:00;101097.72;;;11.20;97.45
72086;BME280;64750;52.134;5.424;2024-02-16T01:54:27;101102.97;;;11.20;97.51
72086;BME280;64750;52.134;5.424;2024-02-16T01:56:54;101103.19;;;11.16;97.31
72086;BME280;64750;52.134;5.424;2024-02-16T01:59:22;101096.22;;;11.15;97.30
72086;BME280;64750;52.134;5.424;2024-02-16T02:01:48;101091.78;;;11.16;97.22
72086;BME280;64750;52.134;5.424;2024-02-16T02:04:15;101097.97;;;11.15;97.47
72086;BME280;64750;52.134;5.424;2024-02-16T02:06:42;101090.94;;;11.15;97.54
72086;BME280;64750;52.134;5.424;2024-02-16T02:09:09;101088.47;;;11.12;97.36
72086;BME280;64750;52.134;5.424;2024-02-16T02:11:36;101079.66;;;11.13;97.59
72086;BME280;64750;52.134;5.424;2024-02-16T02:14:03;101081.47;;;11.13;97.40
72086;BME280;64750;52.134;5.424;2024-02-16T02:16:30;101071.88;;;11.12;97.71
72086;BME280;64750;52.134;5.424;2024-02-16T02:19:06;101080.59;;;11.12;97.56
72086;BME280;64750;52.134;5.424;2024-02-16T02:21:32;101077.13;;;11.12;97.28
72086;BME280;64750;52.134;5.424;2024-02-16T02:23:59;101075.34;;;11.12;97.32
72086;BME280;64750;52.134;5.424;2024-02-16T02:26:25;101084.09;;;11.13;97.25
72086;BME280;64750;52.134;5.424;2024-02-16T02:28:51;101087.66;;;11.12;97.23
72086;BME280;64750;52.134;5.424;2024-02-16T02:31:18;101090.38;;;11.10;96.95
72086;BME280;64750;52.134;5.424;2024-02-16T02:33:44;101088.47;;;11.12;97.17
72086;BME280;64750;52.134;5.424;2024-02-16T02:36:11;101084.19;;;11.11;97.31
72086;BME280;64750;52.134;5.424;2024-02-16T02:38:38;101078.94;;;11.11;97.17
72086;BME280;64750;52.134;5.424;2024-02-16T02:41:04;101078.06;;;11.11;97.12
72086;BME280;64750;52.134;5.424;2024-02-16T02:43:33;101073.66;;;11.11;97.09
72086;BME280;64750;52.134;5.424;2024-02-16T02:46:00;101060.56;;;11.10;96.70
72086;BME280;64750;52.134;5.424;2024-02-16T02:48:27;101058.91;;;11.09;96.71
72086;BME280;64750;52.134;5.424;2024-02-16T02:50:53;101059.75;;;11.09;96.67
72086;BME280;64750;52.134;5.424;2024-02-16T02:53:20;101057.13;;;11.09;96.54
72086;BME280;64750;52.134;5.424;2024-02-16T02:55:46;101054.47;;;11.09;96.53
72086;BME280;64750;52.134;5.424;2024-02-16T02:58:13;101054.47;;;11.09;96.50
72086;BME280;64750;52.134;5.424;2024-02-16T03:00:39;101047.53;;;11.08;96.07
72086;BME280;64750;52.134;5.424;2024-02-16T03:03:06;101042.25;;;11.08;95.95
72086;BME280;64750;52.134;5.424;2024-02-16T03:05:32;101045.75;;;11.09;96.10
72086;BME280;64750;52.134;5.424;2024-02-16T03:07:59;101041.44;;;11.08;96.10
72086;BME280;64750;52.134;5.424;2024-02-16T03:10:27;101039.63;;;11.08;95.96
72086;BME280;64750;52.134;5.424;2024-02-16T03:12:57;101046.69;;;11.08;96.10
72086;BME280;64750;52.134;5.424;2024-02-16T03:15:23;101041.53;;;11.06;95.80
72086;BME280;64750;52.134;5.424;2024-02-16T03:17:50;101044.16;;;11.06;95.86
72086;BME280;64750;52.134;5.424;2024-02-16T03:20:17;101043.28;;;11.06;95.90
72086;BME280;64750;52.134;5.424;2024-02-16T03:22:43;101042.44;;;11.05;95.84
72086;BME280;64750;52.134;5.424;2024-02-16T03:25:10;101039.06;;;11.03;95.89
72086;BME280;64750;52.134;5.424;2024-02-16T03:27:36;101039.06;;;11.03;95.99
72086;BME280;64750;52.134;5.424;2024-02-16T03:30:04;101043.47;;;11.03;96.08
72086;BME280;64750;52.134;5.424;2024-02-16T03:32:31;101040.94;;;11.01;96.03
72086;BME280;64750;52.134;5.424;2024-02-16T03:34:58;101037.34;;;11.02;96.15
72086;BME280;64750;52.134;5.424;2024-02-16T03:37:25;101048.91;;;10.99;96.05
72086;BME280;64750;52.134;5.424;2024-02-16T03:39:51;101041.13;;;10.98;95.85
72086;BME280;64750;52.134;5.424;2024-02-16T03:42:19;101049.00;;;10.98;96.03
72086;BME280;64750;52.134;5.424;2024-02-16T03:44:47;101040.19;;;10.99;96.07
72086;BME280;64750;52.134;5.424;2024-02-16T03:47:13;101039.41;;;10.97;95.73
72086;BME280;64750;52.134;5.424;2024-02-16T03:49:40;101044.78;;;10.95;96.08
72086;BME280;64750;52.134;5.424;2024-02-16T03:52:06;101041.22;;;10.96;96.00
72086;BME280;64750;52.134;5.424;2024-02-16T03:54:33;101038.66;;;10.95;96.07
72086;BME280;64750;52.134;5.424;2024-02-16T03:57:00;101043.94;;;10.95;96.24
72086;BME280;64750;52.134;5.424;2024-02-16T03:59:27;101036.09;;;10.93;96.19
72086;BME280;64750;52.134;5.424;2024-02-16T04:01:53;101032.66;;;10.93;95.92
72086;BME280;64750;52.134;5.424;2024-02-16T04:04:20;101038.84;;;10.92;96.08
72086;BME280;64750;52.134;5.424;2024-02-16T04:06:46;101034.50;;;10.91;96.13
72086;BME280;64750;52.134;5.424;2024-02-16T04:09:13;101038.25;;;10.87;95.81
72086;BME280;64750;52.134;5.424;2024-02-16T04:11:40;101041.75;;;10.87;95.76
72086;BME280;64750;52.134;5.424;2024-02-16T04:14:07;101045.22;;;10.88;95.67
72086;BME280;64750;52.134;5.424;2024-02-16T04:16:34;101058.38;;;10.88;95.71
72086;BME280;64750;52.134;5.424;2024-02-16T04:19:01;101051.41;;;10.87;95.37
72086;BME280;64750;52.134;5.424;2024-02-16T04:21:27;101050.47;;;10.88;95.49
72086;BME280;64750;52.134;5.424;2024-02-16T04:23:54;101045.31;;;10.86;95.26
72086;BME280;64750;52.134;5.424;2024-02-16T04:26:21;101041.81;;;10.86;95.31
72086;BME280;64750;52.134;5.424;2024-02-16T04:28:47;101042.78;;;10.85;95.32
72086;BME280;64750;52.134;5.424;2024-02-16T04:31:14;101047.25;;;10.82;95.18
72086;BME280;64750;52.134;5.424;2024-02-16T04:33:40;101037.59;;;10.83;95.31
72086;BME280;64750;52.134;5.424;2024-02-16T04:36:07;101042.00;;;10.82;95.18
72086;BME280;64750;52.134;5.424;2024-02-16T04:38:34;101038.59;;;10.80;95.23
72086;BME280;64750;52.134;5.424;2024-02-16T04:41:01;101031.59;;;10.81;95.13
72086;BME280;64750;52.134;5.424;2024-02-16T04:43:27;101041.25;;;10.80;95.08
72086;BME280;64750;52.134;5.424;2024-02-16T04:45:54;101043.03;;;10.80;95.03
72086;BME280;64750;52.134;5.424;2024-02-16T04:48:20;101044.81;;;10.79;95.03
72086;BME280;64750;52.134;5.424;2024-02-16T04:50:47;101053.53;;;10.80;95.42
72086;BME280;64750;52.134;5.424;2024-02-16T04:53:14;101048.28;;;10.80;95.40
72086;BME280;64750;52.134;5.424;2024-02-16T04:55:40;101045.75;;;10.78;95.30
72086;BME280;64750;52.134;5.424;2024-02-16T04:58:07;101044.81;;;10.79;95.15
72086;BME280;64750;52.134;5.424;2024-02-16T05:00:39;101038.69;;;10.79;94.98
72086;BME280;64750;52.134;5.424;2024-02-16T05:03:06;101037.97;;;10.77;94.99
72086;BME280;64750;52.134;5.424;2024-02-16T05:05:33;101044.06;;;10.77;95.00
72086;BME280;64750;52.134;5.424;2024-02-16T05:08:01;101046.69;;;10.77;95.04
72086;BME280;64750;52.134;5.424;2024-02-16T05:10:28;101044.88;;;10.78;95.03
72086;BME280;64750;52.134;5.424;2024-02-16T05:12:54;101043.22;;;10.77;95.15
72086;BME280;64750;52.134;5.424;2024-02-16T05:15:20;101051.94;;;10.77;95.11
72086;BME280;64750;52.134;5.424;2024-02-16T05:17:47;101048.53;;;10.75;95.20
72086;BME280;64750;52.134;5.424;2024-02-16T05:20:17;101044.97;;;10.76;95.21
72086;BME280;64750;52.134;5.424;2024-02-16T05:22:46;101039.00;;;10.74;95.01
72086;BME280;64750;52.134;5.424;2024-02-16T05:25:13;101039.91;;;10.73;95.10
72086;BME280;64750;52.134;5.424;2024-02-16T05:27:40;101037.19;;;10.75;95.04
72086;BME280;64750;52.134;5.424;2024-02-16T05:30:10;101031.09;;;10.74;95.10
72086;BME280;64750;52.134;5.424;2024-02-16T05:32:37;101028.47;;;10.74;95.02
72086;BME280;64750;52.134;5.424;2024-02-16T05:35:04;101036.41;;;10.73;95.12
72086;BME280;64750;52.134;5.424;2024-02-16T05:37:39;101033.78;;;10.73;95.01
72086;BME280;64750;52.134;5.424;2024-02-16T05:40:08;101026.88;;;10.72;95.20
72086;BME280;64750;52.134;5.424;2024-02-16T05:42:49;101025.91;;;10.73;95.33
72086;BME280;64750;52.134;5.424;2024-02-16T05:45:16;101028.63;;;10.71;95.16
72086;BME280;64750;52.134;5.424;2024-02-16T05:47:44;101031.25;;;10.71;95.13
72086;BME280;64750;52.134;5.424;2024-02-16T05:50:15;101020.84;;;10.70;95.27
72086;BME280;64750;52.134;5.424;2024-02-16T05:52:42;101027.78;;;10.71;95.49
72086;BME280;64750;52.134;5.424;2024-02-16T05:55:10;101030.53;;;10.69;95.59
72086;BME280;64750;52.134;5.424;2024-02-16T05:57:37;101033.88;;;10.71;95.58
72086;BME280;64750;52.134;5.424;2024-02-16T06:00:05;101037.38;;;10.72;95.29
72086;BME280;64750;52.134;5.424;2024-02-16T06:02:32;101041.03;;;10.69;95.56
72086;BME280;64750;52.134;5.424;2024-02-16T06:05:00;101039.34;;;10.68;95.44
72086;BME280;64750;52.134;5.424;2024-02-16T06:07:26;101037.63;;;10.67;95.47
72086;BME280;64750;52.134;5.424;2024-02-16T06:09:55;101048.16;;;10.67;95.93
72086;BME280;64750;52.134;5.424;2024-02-16T06:12:21;101035.78;;;10.69;95.99
72086;BME280;64750;52.134;5.424;2024-02-16T06:14:48;101038.47;;;10.67;95.83
72086;BME280;64750;52.134;5.424;2024-02-16T06:17:15;101033.16;;;10.69;95.97
72086;BME280;64750;52.134;5.424;2024-02-16T06:19:43;101042.91;;;10.67;96.03
72086;BME280;64750;52.134;5.424;2024-02-16T06:22:10;101056.81;;;10.69;96.27
72086;BME280;64750;52.134;5.424;2024-02-16T06:24:36;101064.69;;;10.69;96.47
72086;BME280;64750;52.134;5.424;2024-02-16T06:27:04;101060.38;;;10.68;96.42
72086;BME280;64750;52.134;5.424;2024-02-16T06:29:30;101070.88;;;10.68;96.30
72086;BME280;64750;52.134;5.424;2024-02-16T06:31:57;101071.72;;;10.69;96.26
72086;BME280;64750;52.134;5.424;2024-02-16T06:34:23;101070.00;;;10.67;96.22
72086;BME280;64750;52.134;5.424;2024-02-16T06:36:50;101083.09;;;10.69;96.22
72086;BME280;64750;52.134;5.424;2024-02-16T06:39:17;101076.97;;;10.69;96.33
72086;BME280;64750;52.134;5.424;2024-02-16T06:41:46;101079.69;;;10.67;96.41
72086;BME280;64750;52.134;5.424;2024-02-16T06:44:13;101075.22;;;10.69;96.64
72086;BME280;64750;52.134;5.424;2024-02-16T06:46:41;101092.66;;;10.70;96.72
72086;BME280;64750;52.134;5.424;2024-02-16T06:49:07;101088.25;;;10.71;96.73
72086;BME280;64750;52.134;5.424;2024-02-16T06:51:35;101095.28;;;10.70;96.89
72086;BME280;64750;52.134;5.424;2024-02-16T06:54:03;101100.53;;;10.70;96.85
72086;BME280;64750;52.134;5.424;2024-02-16T06:56:31;101099.72;;;10.70;96.92
72086;BME280;64750;52.134;5.424;2024-02-16T06:58:58;101110.13;;;10.71;97.01
72086;BME280;64750;52.134;5.424;2024-02-16T07:01:24;101102.25;;;10.71;97.16
72086;BME280;64750;52.134;5.424;2024-02-16T07:03:54;101096.97;;;10.71;97.13
72086;BME280;64750;52.134;5.424;2024-02-16T07:06:21;101103.16;;;10.70;97.13
72086;BME280;64750;52.134;5.424;2024-02-16T07:08:48;101108.44;;;10.70;97.12
72086;BME280;64750;52.134;5.424;2024-02-16T07:11:14;101109.38;;;10.69;97.16
72086;BME280;64750;52.134;5.424;2024-02-16T07:13:41;101112.75;;;10.71;97.45
72086;BME280;64750;52.134;5.424;2024-02-16T07:16:09;101122.44;;;10.71;97.39
72086;BME280;64750;52.134;5.424;2024-02-16T07:18:36;101123.28;;;10.71;97.40
72086;BME280;64750;52.134;5.424;2024-02-16T07:21:03;101130.22;;;10.72;97.64
72086;BME280;64750;52.134;5.424;2024-02-16T07:23:30;101130.22;;;10.72;97.77
72086;BME280;64750;52.134;5.424;2024-02-16T07:25:56;101135.50;;;10.72;97.61
72086;BME280;64750;52.134;5.424;2024-02-16T07:28:24;101134.56;;;10.73;97.72
72086;BME280;64750;52.134;5.424;2024-02-16T07:30:51;101131.94;;;10.73;97.79
72086;BME280;64750;52.134;5.424;2024-02-16T07:33:19;101131.94;;;10.73;97.76
72086;BME280;64750;52.134;5.424;2024-02-16T07:35:46;101136.31;;;10.73;97.72
72086;BME280;64750;52.134;5.424;2024-02-16T07:38:13;101140.66;;;10.74;97.91
72086;BME280;64750;52.134;5.424;2024-02-16T07:40:39;101149.41;;;10.74;98.14
72086;BME280;64750;52.134;5.424;2024-02-16T07:43:06;101145.06;;;10.73;98.06
72086;BME280;64750;52.134;5.424;2024-02-16T07:45:32;101150.25;;;10.75;98.13
72086;BME280;64750;52.134;5.424;2024-02-16T07:47:59;101145.06;;;10.73;98.24
72086;BME280;64750;52.134;5.424;2024-02-16T07:50:31;101144.16;;;10.74;98.22
72086;BME280;64750;52.134;5.424;2024-02-16T07:52:58;101154.66;;;10.74;98.39
72086;BME280;64750;52.134;5.424;2024-02-16T07:55:24;101152.88;;;10.75;98.52
72086;BME280;64750;52.134;5.424;2024-02-16T07:57:51;101158.97;;;10.75;98.43
72086;BME280;64750;52.134;5.424;2024-02-16T08:00:18;101158.97;;;10.75;98.63
72086;BME280;64750;52.134;5.424;2024-02-16T08:02:45;101165.91;;;10.76;98.70
72086;BME280;64750;52.134;5.424;2024-02-16T08:05:12;101165.00;;;10.77;98.64
72086;BME280;64750;52.134;5.424;2024-02-16T08:07:41;101178.06;;;10.79;98.89
72086;BME280;64750;52.134;5.424;2024-02-16T08:10:09;101176.19;;;10.81;98.99
72086;BME280;64750;52.134;5.424;2024-02-16T08:12:36;101182.19;;;10.83;98.91
72086;BME280;64750;52.134;5.424;2024-02-16T08:15:04;101187.41;;;10.85;98.98
72086;BME280;64750;52.134;5.424;2024-02-16T08:17:35;101175.91;;;10.86;99.19
72086;BME280;64750;52.134;5.424;2024-02-16T08:20:03;101178.41;;;10.89;99.30
72086;BME280;64750;52.134;5.424;2024-02-16T08:22:30;101187.91;;;10.91;99.53
72086;BME280;64750;52.134;5.424;2024-02-16T08:24:56;101184.34;;;10.92;99.62
72086;BME280;64750;52.134;5.424;2024-02-16T08:27:23;101189.41;;;10.95;99.81
72086;BME280;64750;52.134;5.424;2024-02-16T08:29:51;101192.81;;;10.97;99.96
72086;BME280;64750;52.134;5.424;2024-02-16T08:32:20;101197.88;;;11.00;99.99
72086;BME280;64750;52.134;5.424;2024-02-16T08:34:47;101193.31;;;11.04;99.99
72086;BME280;64750;52.134;5.424;2024-02-16T08:37:17;101202.63;;;11.10;100.00
72086;BME280;64750;52.134;5.424;2024-02-16T08:39:43;101200.53;;;11.16;99.94
72086;BME280;64750;52.134;5.424;2024-02-16T08:42:10;101196.88;;;11.19;100.00
72086;BME280;64750;52.134;5.424;2024-02-16T08:44:40;101207.00;;;11.25;99.93
72086;BME280;64750;52.134;5.424;2024-02-16T08:47:07;101200.72;;;11.28;99.91
72086;BME280;64750;52.134;5.424;2024-02-16T08:49:34;101196.81;;;11.35;99.77
72086;BME280;64750;52.134;5.424;2024-02-16T08:52:01;101201.97;;;11.37;99.54
72086;BME280;64750;52.134;5.424;2024-02-16T08:54:28;101206.31;;;11.38;99.70
72086;BME280;64750;52.134;5.424;2024-02-16T08:56:55;101204.53;;;11.38;99.59
72086;BME280;64750;52.134;5.424;2024-02-16T08:59:21;101209.72;;;11.40;99.67
72086;BME280;64750;52.134;5.424;2024-02-16T09:01:48;101217.34;;;11.44;99.48
72086;BME280;64750;52.134;5.424;2024-02-16T09:04:14;101221.56;;;11.47;99.62
72086;BME280;64750;52.134;5.424;2024-02-16T09:06:42;101223.19;;;11.49;99.63
72086;BME280;64750;52.134;5.424;2024-02-16T09:09:08;101228.28;;;11.53;99.49
72086;BME280;64750;52.134;5.424;2024-02-16T09:11:35;101229.78;;;11.57;99.42
72086;BME280;64750;52.134;5.424;2024-02-16T09:14:02;101225.19;;;11.60;99.55
72086;BME280;64750;52.134;5.424;2024-02-16T09:16:28;101229.59;;;11.60;99.48
72086;BME280;64750;52.134;5.424;2024-02-16T09:18:55;101249.00;;;11.59;99.90
72086;BME280;64750;52.134;5.424;2024-02-16T09:21:22;101247.19;;;11.59;100.00
72086;BME280;64750;52.134;5.424;2024-02-16T09:23:50;101257.72;;;11.59;100.00
72086;BME280;64750;52.134;5.424;2024-02-16T09:26:16;101263.25;;;11.55;100.00
72086;BME280;64750;52.134;5.424;2024-02-16T09:28:43;101279.13;;;11.53;100.00
72086;BME280;64750;52.134;5.424;2024-02-16T09:31:14;101276.59;;;11.52;100.00
72086;BME280;64750;52.134;5.424;2024-02-16T09:33:40;101274.16;;;11.48;100.00
72086;BME280;64750;52.134;5.424;2024-02-16T09:36:07;101286.44;;;11.48;100.00
72086;BME280;64750;52.134;5.424;2024-02-16T09:38:33;101291.81;;;11.46;100.00
72086;BME280;64750;52.134;5.424;2024-02-16T09:41:00;101287.38;;;11.47;100.00
72086;BME280;64750;52.134;5.424;2024-02-16T09:43:29;101297.91;;;11.47;100.00
72086;BME280;64750;52.134;5.424;2024-02-16T09:45:57;101302.25;;;11.48;100.00
72086;BME280;64750;52.134;5.424;2024-02-16T09:48:27;101306.56;;;11.49;100.00
72086;BME280;64750;52.134;5.424;2024-02-16T09:50:55;101313.63;;;11.48;100.00
72086;BME280;64750;52.134;5.424;2024-02-16T09:53:25;101323.97;;;11.52;100.00
72086;BME280;64750;52.134;5.424;2024-02-16T09:55:52;101320.41;;;11.53;100.00
72086;BME280;64750;52.134;5.424;2024-02-16T09:58:19;101316.00;;;11.53;100.00
72086;BME280;64750;52.134;5.424;2024-02-16T10:00:54;101326.44;;;11.55;100.00
72086;BME280;64750;52.134;5.424;2024-02-16T10:03:26;101329.06;;;11.55;100.00
72086;BME280;64750;52.134;5.424;2024-02-16T10:06:14;101330.75;;;11.56;100.00
72086;BME280;64750;52.134;5.424;2024-02-16T10:08:48;101336.97;;;11.55;100.00
72086;BME280;64750;52.134;5.424;2024-02-16T10:11:16;101333.47;;;11.54;100.00
72086;BME280;64750;52.134;5.424;2024-02-16T10:13:42;101349.28;;;11.54;100.00
72086;BME280;64750;52.134;5.424;2024-02-16T10:16:11;101349.28;;;11.54;100.00
72086;BME280;64750;52.134;5.424;2024-02-16T10:18:38;101359.03;;;11.52;100.00
72086;BME280;64750;52.134;5.424;2024-02-16T10:21:05;101357.44;;;11.49;100.00
72086;BME280;64750;52.134;5.424;2024-02-16T10:23:31;101362.69;;;11.49;100.00
72086;BME280;64750;52.134;5.424;2024-02-16T10:26:01;101368.97;;;11.47;100.00
72086;BME280;64750;52.134;5.424;2024-02-16T10:28:29;101368.13;;;11.46;100.00
72086;BME280;64750;52.134;5.424;2024-02-16T10:30:58;101382.22;;;11.45;100.00
72086;BME280;64750;52.134;5.424;2024-02-16T10:33:31;101378.81;;;11.43;100.00
72086;BME280;64750;52.134;5.424;2024-02-16T10:35:59;101377.97;;;11.43;100.00
72086;BME280;64750;52.134;5.424;2024-02-16T10:38:29;101391.13;;;11.43;100.00
72086;BME280;64750;52.134;5.424;2024-02-16T10:40:56;101393.88;;;11.41;100.00
72086;BME280;64750;52.134;5.424;2024-02-16T10:43:23;101400.88;;;11.41;100.00
72086;BME280;64750;52.134;5.424;2024-02-16T10:45:51;101409.66;;;11.41;100.00
72086;BME280;64750;52.134;5.424;2024-02-16T10:48:19;101415.84;;;11.40;100.00
72086;BME280;64750;52.134;5.424;2024-02-16T10:50:46;101422.97;;;11.38;100.00
72086;BME280;64750;52.134;5.424;2024-02-16T10:53:22;101430.94;;;11.37;100.00
72086;BME280;64750;52.134;5.424;2024-02-16T10:55:50;101428.41;;;11.35;100.00
72086;BME280;64750;52.134;5.424;2024-02-16T10:58:18;101435.47;;;11.35;100.00
72086;BME280;64750;52.134;5.424;2024-02-16T11:00:49;101448.69;;;11.33;100.00
72086;BME280;64750;52.134;5.424;2024-02-16T11:03:17;101447.84;;;11.32;100.00
72086;BME280;64750;52.134;5.424;2024-02-16T11:05:44;101449.63;;;11.32;100.00
72086;BME280;64750;52.134;5.424;2024-02-16T11:08:15;101446.22;;;11.30;100.00
72086;BME280;64750;52.134;5.424;2024-02-16T11:13:24;101451.50;;;11.30;100.00
72086;BME280;64750;52.134;5.424;2024-02-16T11:16:12;101447.25;;;11.27;100.00
72086;BME280;64750;52.134;5.424;2024-02-16T11:18:41;101458.59;;;11.28;100.00
72086;BME280;64750;52.134;5.424;2024-02-16T11:21:14;101458.59;;;11.28;100.00
72086;BME280;64750;52.134;5.424;2024-02-16T11:23:42;101463.88;;;11.28;100.00
72086;BME280;64750;52.134;5.424;2024-02-16T11:26:10;101457.69;;;11.29;100.00
72086;BME280;64750;52.134;5.424;2024-02-16T11:28:42;101454.22;;;11.28;100.00
72086;BME280;64750;52.134;5.424;2024-02-16T11:31:09;101467.28;;;11.30;100.00
72086;BME280;64750;52.134;5.424;2024-02-16T11:33:35;101470.75;;;11.30;100.00
72086;BME280;64750;52.134;5.424;2024-02-16T11:36:04;101477.91;;;11.28;100.00
72086;BME280;64750;52.134;5.424;2024-02-16T11:38:31;101484.88;;;11.29;100.00
72086;BME280;64750;52.134;5.424;2024-02-16T11:41:05;101475.09;;;11.31;100.00
72086;BME280;64750;52.134;5.424;2024-02-16T11:43:34;101476.88;;;11.31;100.00
72086;BME280;64750;52.134;5.424;2024-02-16T11:46:19;101479.50;;;11.31;100.00
72086;BME280;64750;52.134;5.424;2024-02-16T11:48:45;101486.47;;;11.32;100.00
72086;BME280;64750;52.134;5.424;2024-02-16T11:51:15;101490.03;;;11.31;100.00
72086;BME280;64750;52.134;5.424;2024-02-16T11:53:43;101484.78;;;11.31;100.00
72086;BME280;64750;52.134;5.424;2024-02-16T11:56:21;101492.66;;;11.31;100.00
72086;BME280;64750;52.134;5.424;2024-02-16T11:58:48;101509.31;;;11.31;100.00
72086;BME280;64750;52.134;5.424;2024-02-16T12:01:15;101515.56;;;11.29;100.00
72086;BME280;64750;52.134;5.424;2024-02-16T12:03:42;101516.50;;;11.28;100.00
72086;BME280;64750;52.134;5.424;2024-02-16T12:06:09;101520.13;;;11.25;100.00
72086;BME280;64750;52.134;5.424;2024-02-16T12:08:35;101531.53;;;11.26;100.00
72086;BME280;64750;52.134;5.424;2024-02-16T12:11:02;101546.53;;;11.24;100.00
72086;BME280;64750;52.134;5.424;2024-02-16T12:13:29;101555.34;;;11.23;100.00
72086;BME280;64750;52.134;5.424;2024-02-16T12:15:55;101543.16;;;11.22;100.00
72086;BME280;64750;52.134;5.424;2024-02-16T12:18:26;101543.16;;;11.22;100.00
72086;BME280;64750;52.134;5.424;2024-02-16T12:21:04;101544.84;;;11.23;100.00
72086;BME280;64750;52.134;5.424;2024-02-16T12:23:36;101550.25;;;11.20;100.00
72086;BME280;64750;52.134;5.424;2024-02-16T12:26:02;101558.06;;;11.21;100.00
72086;BME280;64750;52.134;5.424;2024-02-16T12:28:30;101570.38;;;11.21;100.00
72086;BME280;64750;52.134;5.424;2024-02-16T12:31:00;101570.47;;;11.19;100.00
72086;BME280;64750;52.134;5.424;2024-02-16T12:33:29;101578.28;;;11.21;100.00
72086;BME280;64750;52.134;5.424;2024-02-16T12:35:56;101582.75;;;11.19;100.00
72086;BME280;64750;52.134;5.424;2024-02-16T12:38:23;101579.22;;;11.20;100.00
72086;BME280;64750;52.134;5.424;2024-02-16T12:40:49;101590.66;;;11.19;100.00
72086;BME280;64750;52.134;5.424;2024-02-16T12:43:16;101587.41;;;11.13;100.00
72086;BME280;64750;52.134;5.424;2024-02-16T12:45:43;101603.38;;;11.10;100.00
72086;BME280;64750;52.134;5.424;2024-02-16T12:48:09;101611.38;;;11.07;100.00
72086;BME280;64750;52.134;5.424;2024-02-16T12:50:36;101611.38;;;11.07;100.00
72086;BME280;64750;52.134;5.424;2024-02-16T12:53:08;101610.63;;;11.05;100.00